Time;durP1;ratioP1;P1;durP2;ratioP2;P2;SDS_P1;SDS_P2;PMS_P1;PMS_P2;Temp;Humidity;BMP_temperature;BMP_pressure;BME280_temperature;BME280_humidity;BME280_pressure;Samples;Min_cycle;Max_cycle;Signal;HPM_P1;HPM_P2
2022/09/12 00:00:15;;;;;;;5.73;4.30;;;;;;;;;;5092985;28;20537;-71
2022/09/12 00:02:42;;;;;;;5.33;3.70;;;;;;;;;;5094090;28;20842;-71
2022/09/12 00:05:11;;;;;;;6.20;4.27;;;;;;;;;;5094139;28;20456;-71
2022/09/12 00:07:38;;;;;;;4.50;3.60;;;;;;;;;;5093664;28;20445;-71
2022/09/12 00:10:06;;;;;;;6.57;4.83;;;;;;;;;;5093648;28;20453;-71
2022/09/12 00:12:33;;;;;;;4.80;4.10;;;;;;;;;;5092994;28;20445;-72
2022/09/12 00:15:00;;;;;;;6.73;4.33;;;;;;;;;;5093723;28;20491;-71
2022/09/12 00:17:28;;;;;;;5.30;4.17;;;;;;;;;;5093154;28;20832;-71
2022/09/12 00:19:55;;;;;;;5.07;3.50;;;;;;;;;;5093466;28;20449;-73
2022/09/12 00:22:23;;;;;;;5.57;4.40;;;;;;;;;;5092614;28;20449;-73
2022/09/12 00:24:51;;;;;;;8.27;4.30;;;;;;;;;;5093755;28;20445;-73
2022/09/12 00:27:18;;;;;;;5.70;4.50;;;;;;;;;;5092394;28;20492;-72
2022/09/12 00:29:45;;;;;;;6.17;4.20;;;;;;;;;;5093060;28;20456;-72
2022/09/12 00:32:12;;;;;;;5.03;4.43;;;;;;;;;;5092860;28;20448;-71
2022/09/12 00:34:39;;;;;;;4.37;3.83;;;;;;;;;;5093350;28;20830;-72
2022/09/12 00:37:06;;;;;;;5.43;4.70;;;;;;;;;;5093334;28;20974;-73
2022/09/12 00:39:35;;;;;;;4.70;3.77;;;;;;;;;;5092805;28;20448;-73
2022/09/12 00:42:02;;;;;;;4.23;3.83;;;;;;;;;;5093437;28;20756;-73
2022/09/12 00:44:46;;;;;;;6.37;4.43;;;;;;;;;;5092830;28;20873;-72
2022/09/12 00:47:16;;;;;;;5.20;4.33;;;;;;;;;;5092506;28;20451;-73
2022/09/12 00:49:46;;;;;;;5.23;4.13;;;;;;;;;;5092787;28;20437;-72
2022/09/12 00:52:15;;;;;;;6.10;3.97;;;;;;;;;;5093005;28;20449;-73
2022/09/12 00:54:45;;;;;;;5.90;4.33;;;;;;;;;;5092110;28;20451;-72
2022/09/12 00:57:14;;;;;;;4.83;3.70;;;;;;;;;;5092813;28;20817;-71
2022/09/12 00:59:43;;;;;;;5.50;4.60;;;;;;;;;;5092825;28;20865;-73
2022/09/12 01:02:11;;;;;;;5.83;4.60;;;;;;;;;;5093096;28;20449;-73
2022/09/12 01:04:39;;;;;;;6.70;5.30;;;;;;;;;;5092927;28;20453;-74
2022/09/12 01:07:07;;;;;;;5.63;4.07;;;;;;;;;;5093097;28;20449;-72
2022/09/12 01:09:34;;;;;;;6.47;5.27;;;;;;;;;;5091653;28;20918;-73
2022/09/12 01:12:03;;;;;;;5.63;4.80;;;;;;;;;;5092633;28;20904;-72
2022/09/12 01:14:31;;;;;;;6.90;4.83;;;;;;;;;;5092060;28;20445;-73
2022/09/12 01:16:58;;;;;;;4.83;3.93;;;;;;;;;;5092686;28;20575;-72
2022/09/12 01:19:44;;;;;;;5.73;4.10;;;;;;;;;;5092085;28;20455;-72
2022/09/12 01:22:17;;;;;;;6.20;3.60;;;;;;;;;;5079670;28;20449;-72
2022/09/12 01:24:52;;;;;;;4.77;3.90;;;;;;;;;;5092678;28;20800;-72
2022/09/12 01:27:37;;;;;;;6.50;4.23;;;;;;;;;;5092000;28;20472;-72
2022/09/12 01:30:25;;;;;;;6.60;4.40;;;;;;;;;;5091559;28;20467;-73
2022/09/12 01:33:13;;;;;;;5.67;3.70;;;;;;;;;;5092267;28;20980;-73
2022/09/12 01:35:46;;;;;;;4.93;3.87;;;;;;;;;;5084835;28;21007;-73
2022/09/12 01:38:20;;;;;;;6.83;4.40;;;;;;;;;;5091730;28;20447;-72
2022/09/12 01:40:52;;;;;;;5.50;3.93;;;;;;;;;;5091588;28;20441;-72
2022/09/12 01:43:23;;;;;;;7.07;3.30;;;;;;;;;;5091634;28;20490;-74
2022/09/12 01:45:55;;;;;;;5.70;4.47;;;;;;;;;;5092264;28;20437;-72
2022/09/12 01:48:24;;;;;;;5.67;4.53;;;;;;;;;;5091173;28;20500;-73
2022/09/12 01:50:54;;;;;;;9.23;5.00;;;;;;;;;;5091444;28;20452;-73
2022/09/12 01:53:23;;;;;;;5.07;4.30;;;;;;;;;;5090837;28;20455;-73
2022/09/12 01:55:52;;;;;;;7.30;4.33;;;;;;;;;;5092074;28;20491;-73
2022/09/12 01:58:21;;;;;;;7.73;4.60;;;;;;;;;;5090966;28;20940;-73
2022/09/12 02:00:51;;;;;;;5.93;4.50;;;;;;;;;;5091430;28;20451;-72
2022/09/12 02:03:20;;;;;;;4.83;4.20;;;;;;;;;;5090706;28;20903;-73
2022/09/12 02:05:51;;;;;;;5.37;3.90;;;;;;;;;;5091197;28;20496;-72
2022/09/12 02:08:21;;;;;;;5.37;4.07;;;;;;;;;;5077870;28;20445;-73
2022/09/12 02:10:51;;;;;;;6.50;4.53;;;;;;;;;;5091018;28;20441;-73
2022/09/12 02:13:20;;;;;;;5.33;4.30;;;;;;;;;;5091175;28;20445;-72
2022/09/12 02:15:49;;;;;;;7.73;4.73;;;;;;;;;;5091069;28;20481;-72
2022/09/12 02:18:17;;;;;;;8.90;5.40;;;;;;;;;;5091018;28;20452;-73
2022/09/12 02:20:45;;;;;;;5.30;4.57;;;;;;;;;;5090779;28;20981;-72
2022/09/12 02:23:15;;;;;;;4.93;4.33;;;;;;;;;;5090757;28;20456;-71
2022/09/12 02:25:45;;;;;;;5.80;4.77;;;;;;;;;;5091408;28;20456;-72
2022/09/12 02:28:14;;;;;;;6.90;4.50;;;;;;;;;;5091106;28;20464;-72
2022/09/12 02:30:45;;;;;;;6.47;4.57;;;;;;;;;;5090833;28;20463;-73
2022/09/12 02:33:16;;;;;;;5.90;4.00;;;;;;;;;;5091084;28;20445;-72
2022/09/12 02:35:46;;;;;;;5.43;3.97;;;;;;;;;;5091053;28;20488;-72
2022/09/12 02:38:15;;;;;;;10.23;5.30;;;;;;;;;;5090430;28;20448;-72
2022/09/12 02:40:43;;;;;;;4.73;4.20;;;;;;;;;;5090983;28;20440;-71
2022/09/12 02:43:11;;;;;;;9.23;4.87;;;;;;;;;;5091008;28;20940;-73
2022/09/12 02:45:38;;;;;;;6.70;4.50;;;;;;;;;;5091066;28;20540;-73
2022/09/12 02:48:07;;;;;;;5.43;4.50;;;;;;;;;;5091172;28;20456;-72
2022/09/12 02:50:34;;;;;;;6.17;4.60;;;;;;;;;;5090028;28;20463;-73
2022/09/12 02:53:03;;;;;;;5.50;4.60;;;;;;;;;;5090788;28;20449;-72
2022/09/12 02:55:31;;;;;;;8.70;5.13;;;;;;;;;;5090547;28;20848;-72
2022/09/12 02:58:00;;;;;;;8.60;5.70;;;;;;;;;;5090958;28;20470;-72
2022/09/12 03:00:28;;;;;;;6.50;4.80;;;;;;;;;;5090056;28;20445;-72
2022/09/12 03:03:02;;;;;;;6.63;5.60;;;;;;;;;;5090793;28;20538;-72
2022/09/12 03:05:32;;;;;;;6.80;4.67;;;;;;;;;;5090541;28;20823;-72
2022/09/12 03:08:14;;;;;;;7.70;5.00;;;;;;;;;;5090574;28;20445;-72
2022/09/12 03:10:43;;;;;;;7.70;5.70;;;;;;;;;;5087518;28;20950;-72
2022/09/12 03:13:19;;;;;;;8.43;5.13;;;;;;;;;;5077732;28;20452;-72
2022/09/12 03:15:52;;;;;;;6.10;4.40;;;;;;;;;;5090890;28;20464;-72
2022/09/12 03:18:24;;;;;;;5.13;4.10;;;;;;;;;;5092822;28;20449;-72
2022/09/12 03:20:54;;;;;;;7.00;5.10;;;;;;;;;;5094253;28;20436;-72
2022/09/12 03:23:26;;;;;;;10.00;6.40;;;;;;;;;;5093845;28;20459;-72
2022/09/12 03:25:55;;;;;;;7.80;6.10;;;;;;;;;;5094811;28;20492;-72
2022/09/12 03:28:24;;;;;;;7.23;4.90;;;;;;;;;;5094483;28;20792;-72
2022/09/12 03:30:53;;;;;;;9.93;5.63;;;;;;;;;;5094415;28;20452;-72
2022/09/12 03:33:20;;;;;;;7.17;5.60;;;;;;;;;;5094194;28;20460;-73
2022/09/12 03:35:48;;;;;;;6.90;5.00;;;;;;;;;;5094686;28;20492;-72
2022/09/12 03:38:15;;;;;;;7.47;5.30;;;;;;;;;;5093580;28;20939;-72
2022/09/12 03:40:42;;;;;;;6.20;4.60;;;;;;;;;;5093919;28;20935;-72
2022/09/12 03:43:10;;;;;;;6.53;5.10;;;;;;;;;;5094696;28;20475;-72
2022/09/12 03:45:39;;;;;;;5.50;4.40;;;;;;;;;;5080730;28;20444;-73
2022/09/12 03:48:06;;;;;;;6.17;4.80;;;;;;;;;;5094415;28;20458;-74
2022/09/12 03:50:33;;;;;;;5.57;4.37;;;;;;;;;;5093444;28;20843;-74
2022/09/12 03:53:01;;;;;;;5.23;4.70;;;;;;;;;;5093981;28;20455;-73
2022/09/12 03:55:28;;;;;;;7.80;5.30;;;;;;;;;;5093334;28;20956;-72
2022/09/12 03:57:55;;;;;;;6.50;4.80;;;;;;;;;;5094142;28;20460;-73
2022/09/12 04:00:22;;;;;;;8.43;4.47;;;;;;;;;;5093080;28;20440;-72
2022/09/12 04:02:55;;;;;;;7.40;5.37;;;;;;;;;;5094170;28;20480;-72
2022/09/12 04:05:23;;;;;;;8.63;5.60;;;;;;;;;;5093205;28;20448;-73
2022/09/12 04:07:50;;;;;;;8.00;5.73;;;;;;;;;;5093998;28;20451;-72
2022/09/12 04:10:17;;;;;;;8.27;4.83;;;;;;;;;;5093130;28;20451;-74
2022/09/12 04:12:45;;;;;;;5.90;5.20;;;;;;;;;;5093985;28;20444;-71
2022/09/12 04:15:12;;;;;;;4.83;4.33;;;;;;;;;;5093287;28;20438;-71
2022/09/12 04:17:39;;;;;;;5.93;4.40;;;;;;;;;;5093887;28;20510;-73
2022/09/12 04:20:08;;;;;;;8.47;5.60;;;;;;;;;;5093592;28;20448;-72
2022/09/12 04:22:35;;;;;;;8.67;5.30;;;;;;;;;;5092789;28;20465;-74
2022/09/12 04:25:02;;;;;;;8.77;5.70;;;;;;;;;;5093791;28;20455;-73
2022/09/12 04:27:29;;;;;;;9.30;5.17;;;;;;;;;;5093095;28;20475;-74
2022/09/12 04:29:57;;;;;;;6.40;4.47;;;;;;;;;;5092364;28;20448;-74
2022/09/12 04:32:25;;;;;;;7.47;5.00;;;;;;;;;;5092388;28;20539;-71
2022/09/12 04:34:52;;;;;;;9.23;3.87;;;;;;;;;;5093221;28;20463;-71
2022/09/12 04:37:22;;;;;;;7.83;5.33;;;;;;;;;;5092899;28;20490;-71
2022/09/12 04:39:50;;;;;;;6.57;4.40;;;;;;;;;;5092056;28;20456;-70
2022/09/12 04:42:17;;;;;;;6.60;5.03;;;;;;;;;;5092004;28;20452;-72
2022/09/12 04:44:44;;;;;;;8.37;5.60;;;;;;;;;;5093553;28;20470;-73
2022/09/12 04:47:12;;;;;;;8.13;4.73;;;;;;;;;;5093247;28;20546;-73
2022/09/12 04:49:39;;;;;;;6.10;4.57;;;;;;;;;;5093050;28;20477;-72
2022/09/12 04:52:06;;;;;;;7.10;4.47;;;;;;;;;;5093073;28;20451;-72
2022/09/12 04:54:35;;;;;;;11.50;5.80;;;;;;;;;;5092747;28;20517;-72
2022/09/12 04:57:02;;;;;;;7.00;4.60;;;;;;;;;;5081691;28;20478;-73
2022/09/12 04:59:29;;;;;;;6.13;5.07;;;;;;;;;;5093952;28;20453;-73
2022/09/12 05:01:56;;;;;;;6.37;4.70;;;;;;;;;;5092886;28;20455;-78
2022/09/12 05:04:23;;;;;;;7.23;5.83;;;;;;;;;;5092554;28;20454;-76
2022/09/12 05:06:50;;;;;;;8.10;4.70;;;;;;;;;;5092954;28;20462;-75
2022/09/12 05:09:17;;;;;;;6.43;4.47;;;;;;;;;;5091925;28;20443;-75
2022/09/12 05:11:46;;;;;;;7.03;5.47;;;;;;;;;;5092852;28;20443;-75
2022/09/12 05:14:13;;;;;;;7.13;5.17;;;;;;;;;;5092744;28;20454;-75
2022/09/12 05:16:41;;;;;;;8.40;5.40;;;;;;;;;;5093420;28;20474;-74
2022/09/12 05:19:08;;;;;;;10.20;6.07;;;;;;;;;;5092476;28;20521;-76
2022/09/12 05:21:35;;;;;;;6.17;4.20;;;;;;;;;;5092046;28;20457;-75
2022/09/12 05:24:05;;;;;;;5.80;3.93;;;;;;;;;;5091311;28;20443;-75
2022/09/12 05:26:32;;;;;;;11.13;6.00;;;;;;;;;;5091724;28;20527;-77
2022/09/12 05:29:00;;;;;;;6.93;4.80;;;;;;;;;;5092477;28;20456;-75
2022/09/12 05:31:28;;;;;;;7.20;5.10;;;;;;;;;;5092245;28;20451;-77
2022/09/12 05:33:56;;;;;;;7.57;4.57;;;;;;;;;;5092097;28;20490;-75
2022/09/12 05:36:24;;;;;;;6.40;5.00;;;;;;;;;;5091697;28;20478;-75
2022/09/12 05:38:51;;;;;;;10.23;5.60;;;;;;;;;;5092100;28;20440;-74
2022/09/12 05:41:19;;;;;;;5.67;4.70;;;;;;;;;;5091592;28;20466;-77
2022/09/12 05:43:47;;;;;;;7.60;4.60;;;;;;;;;;5091934;28;20432;-75
2022/09/12 05:46:16;;;;;;;7.03;4.87;;;;;;;;;;5091472;28;20444;-74
2022/09/12 05:48:45;;;;;;;9.73;4.77;;;;;;;;;;5092313;28;20472;-75
2022/09/12 05:51:13;;;;;;;7.70;5.27;;;;;;;;;;5091769;28;20840;-73
2022/09/12 05:53:41;;;;;;;10.60;5.13;;;;;;;;;;5091530;28;20996;-74
2022/09/12 05:56:09;;;;;;;8.80;5.10;;;;;;;;;;5091959;28;20444;-76
2022/09/12 05:58:37;;;;;;;7.97;4.90;;;;;;;;;;5078886;28;20452;-76
2022/09/12 06:01:06;;;;;;;7.13;5.23;;;;;;;;;;5091715;28;20456;-74
2022/09/12 06:03:34;;;;;;;8.10;4.83;;;;;;;;;;5091292;28;20447;-76
2022/09/12 06:06:06;;;;;;;6.67;4.50;;;;;;;;;;5091586;28;20766;-74
2022/09/12 06:08:33;;;;;;;8.40;5.20;;;;;;;;;;5091081;28;20927;-75
2022/09/12 06:11:01;;;;;;;8.40;6.10;;;;;;;;;;5091618;28;20448;-76
2022/09/12 06:13:28;;;;;;;7.07;5.50;;;;;;;;;;5090968;28;20800;-76
2022/09/12 06:15:55;;;;;;;6.37;4.60;;;;;;;;;;5091804;28;20455;-76
2022/09/12 06:18:22;;;;;;;6.47;4.87;;;;;;;;;;5091261;28;20503;-75
2022/09/12 06:20:51;;;;;;;7.10;5.00;;;;;;;;;;5091368;28;20452;-75
2022/09/12 06:23:18;;;;;;;7.90;5.00;;;;;;;;;;5090419;28;20441;-75
2022/09/12 06:25:48;;;;;;;8.37;6.10;;;;;;;;;;5091203;28;20797;-74
2022/09/12 06:28:16;;;;;;;10.33;6.50;;;;;;;;;;5091250;28;20432;-76
2022/09/12 06:30:43;;;;;;;7.23;5.40;;;;;;;;;;5091907;28;20432;-74
2022/09/12 06:33:10;;;;;;;11.10;6.00;;;;;;;;;;5091661;28;20448;-74
2022/09/12 06:35:37;;;;;;;9.30;6.10;;;;;;;;;;5092056;28;20504;-75
2022/09/12 06:38:06;;;;;;;8.10;5.80;;;;;;;;;;5091611;28;20496;-75
2022/09/12 06:40:33;;;;;;;7.80;5.30;;;;;;;;;;5091238;28;20476;-75
2022/09/12 06:43:01;;;;;;;10.77;5.93;;;;;;;;;;5096111;28;20433;-76
2022/09/12 06:45:28;;;;;;;9.10;6.07;;;;;;;;;;5100908;28;20902;-74
2022/09/12 06:47:56;;;;;;;9.97;6.40;;;;;;;;;;5102617;28;20447;-75
2022/09/12 06:50:23;;;;;;;8.23;6.37;;;;;;;;;;5100742;28;20436;-74
2022/09/12 06:52:50;;;;;;;11.60;6.23;;;;;;;;;;5099913;28;20437;-76
2022/09/12 06:55:19;;;;;;;8.60;6.27;;;;;;;;;;5099076;28;20489;-74
2022/09/12 06:57:46;;;;;;;10.73;6.30;;;;;;;;;;5099497;28;20476;-74
2022/09/12 07:00:14;;;;;;;9.77;6.17;;;;;;;;;;5095000;28;20440;-75
2022/09/12 07:02:41;;;;;;;9.80;6.07;;;;;;;;;;5093639;28;20531;-75
2022/09/12 07:05:09;;;;;;;7.43;5.80;;;;;;;;;;5092359;28;20464;-76
2022/09/12 07:07:36;;;;;;;7.67;5.50;;;;;;;;;;5091826;28;20498;-75
2022/09/12 07:10:05;;;;;;;10.10;6.63;;;;;;;;;;5092093;28;20527;-75
2022/09/12 07:12:33;;;;;;;8.43;6.00;;;;;;;;;;5091851;28;20437;-74
2022/09/12 07:15:00;;;;;;;10.30;7.43;;;;;;;;;;5091614;28;20445;-74
2022/09/12 07:17:27;;;;;;;9.00;6.47;;;;;;;;;;5090376;28;20522;-73
2022/09/12 07:19:55;;;;;;;8.67;6.13;;;;;;;;;;5091324;28;20787;-74
2022/09/12 07:22:22;;;;;;;8.10;5.07;;;;;;;;;;5090638;28;20444;-74
2022/09/12 07:24:49;;;;;;;9.53;6.33;;;;;;;;;;5091161;28;20433;-74
2022/09/12 07:27:16;;;;;;;9.70;4.70;;;;;;;;;;5090871;28;20590;-74
2022/09/12 07:29:46;;;;;;;6.37;4.97;;;;;;;;;;5091878;28;20753;-76
2022/09/12 07:32:13;;;;;;;9.80;5.50;;;;;;;;;;5091039;28;20444;-74
2022/09/12 07:34:40;;;;;;;6.30;5.30;;;;;;;;;;5090924;28;20452;-75
2022/09/12 07:37:08;;;;;;;6.43;4.43;;;;;;;;;;5091609;28;20479;-75
2022/09/12 07:39:35;;;;;;;7.90;5.30;;;;;;;;;;5090206;28;20445;-75
2022/09/12 07:42:02;;;;;;;6.07;4.50;;;;;;;;;;5091097;28;20441;-75
2022/09/12 07:44:29;;;;;;;7.27;4.97;;;;;;;;;;5090234;28;20537;-75
2022/09/12 07:46:57;;;;;;;7.53;4.80;;;;;;;;;;5091092;28;20449;-74
2022/09/12 07:49:24;;;;;;;6.90;4.77;;;;;;;;;;5090208;28;20448;-75
2022/09/12 07:51:52;;;;;;;7.33;5.47;;;;;;;;;;5090953;28;20785;-75
2022/09/12 07:54:19;;;;;;;8.93;4.67;;;;;;;;;;5089397;28;20479;-75
2022/09/12 07:56:46;;;;;;;5.00;3.87;;;;;;;;;;5090778;28;20441;-75
2022/09/12 07:59:13;;;;;;;5.07;3.80;;;;;;;;;;5090442;28;20503;-75
2022/09/12 08:01:40;;;;;;;6.80;4.67;;;;;;;;;;5090724;28;20490;-75
2022/09/12 08:04:08;;;;;;;6.37;4.30;;;;;;;;;;5090822;28;20452;-75
2022/09/12 08:06:36;;;;;;;4.27;3.87;;;;;;;;;;5093867;28;20456;-74
2022/09/12 08:09:03;;;;;;;5.03;4.10;;;;;;;;;;5094238;28;20448;-74
2022/09/12 08:11:30;;;;;;;5.00;3.80;;;;;;;;;;5080478;28;20516;-74
2022/09/12 08:14:00;;;;;;;4.87;3.70;;;;;;;;;;5093943;28;20437;-75
2022/09/12 08:16:29;;;;;;;5.53;4.20;;;;;;;;;;5093593;28;20437;-75
2022/09/12 08:18:56;;;;;;;3.63;3.23;;;;;;;;;;5093814;28;21007;-74
2022/09/12 08:21:25;;;;;;;5.27;4.77;;;;;;;;;;5093696;28;20498;-75
2022/09/12 08:23:53;;;;;;;4.50;3.80;;;;;;;;;;5093146;28;20456;-74
2022/09/12 08:26:21;;;;;;;4.30;3.67;;;;;;;;;;5093288;28;20472;-75
2022/09/12 08:28:49;;;;;;;7.47;4.57;;;;;;;;;;5093753;28;20444;-74
2022/09/12 08:31:17;;;;;;;7.87;4.33;;;;;;;;;;5093425;28;20440;-75
2022/09/12 08:33:44;;;;;;;4.70;4.00;;;;;;;;;;5093338;28;20528;-73
2022/09/12 08:36:12;;;;;;;6.30;3.83;;;;;;;;;;5093566;28;20456;-75
2022/09/12 08:38:42;;;;;;;4.00;3.47;;;;;;;;;;5093851;28;20485;-75
2022/09/12 08:41:12;;;;;;;4.80;4.10;;;;;;;;;;5094240;28;20444;-74
2022/09/12 08:43:50;;;;;;;6.60;4.13;;;;;;;;;;5093956;28;20443;-76
2022/09/12 08:46:19;;;;;;;4.53;3.40;;;;;;;;;;5093839;28;20841;-74
2022/09/12 08:48:47;;;;;;;7.00;3.70;;;;;;;;;;5094112;28;20480;-74
2022/09/12 08:51:15;;;;;;;5.20;3.90;;;;;;;;;;5093937;28;20432;-73
2022/09/12 08:53:46;;;;;;;3.47;3.10;;;;;;;;;;5081218;28;20441;-75
2022/09/12 08:56:13;;;;;;;3.83;2.80;;;;;;;;;;5095691;28;20494;-75
2022/09/12 08:58:42;;;;;;;4.10;3.67;;;;;;;;;;5102262;28;20476;-77
2022/09/12 09:01:11;;;;;;;7.90;6.00;;;;;;;;;;5102630;28;20446;-76
2022/09/12 09:03:48;;;;;;;4.47;3.60;;;;;;;;;;5101766;28;20504;-74
2022/09/12 09:06:22;;;;;;;3.93;2.30;;;;;;;;;;5101172;28;20453;-76
2022/09/12 09:08:57;;;;;;;6.13;3.63;;;;;;;;;;5094957;28;20440;-75
2022/09/12 09:11:36;;;;;;;3.10;2.70;;;;;;;;;;5092739;28;20489;-75
2022/09/12 09:16:57;;;;;;;3.17;2.53;;;;;;;;;;5092713;28;20563;-73
2022/09/12 09:19:27;;;;;;;3.00;2.63;;;;;;;;;;5092164;28;20485;-73
2022/09/12 09:21:57;;;;;;;3.80;2.10;;;;;;;;;;5093360;28;20441;-73
2022/09/12 09:24:27;;;;;;;2.33;1.70;;;;;;;;;;5091943;28;20440;-73
2022/09/12 09:26:57;;;;;;;3.50;1.60;;;;;;;;;;5093072;28;20529;-73
2022/09/12 09:29:28;;;;;;;1.60;1.40;;;;;;;;;;5091839;28;20445;-73
2022/09/12 09:31:57;;;;;;;3.27;1.77;;;;;;;;;;5092857;28;20451;-74
2022/09/12 09:34:27;;;;;;;1.57;1.47;;;;;;;;;;5091754;28;20445;-73
2022/09/12 09:36:59;;;;;;;2.33;1.80;;;;;;;;;;5092758;28;20475;-73
2022/09/12 09:39:34;;;;;;;2.00;1.90;;;;;;;;;;5092112;28;20469;-76
2022/09/12 09:42:10;;;;;;;1.67;1.53;;;;;;;;;;5092549;28;20464;-74
2022/09/12 09:44:38;;;;;;;1.50;1.40;;;;;;;;;;5092140;28;20449;-74
2022/09/12 09:47:05;;;;;;;2.17;1.97;;;;;;;;;;5092350;28;20432;-74
2022/09/12 09:49:34;;;;;;;2.03;1.50;;;;;;;;;;5092259;28;20441;-74
2022/09/12 09:52:02;;;;;;;1.67;1.50;;;;;;;;;;5092120;28;20519;-74
2022/09/12 09:54:34;;;;;;;1.80;1.70;;;;;;;;;;5091603;28;20437;-74
2022/09/12 09:57:03;;;;;;;1.90;1.70;;;;;;;;;;5079735;28;20831;-74
2022/09/12 09:59:32;;;;;;;2.20;2.00;;;;;;;;;;5091550;28;20511;-74
2022/09/12 10:02:02;;;;;;;1.60;1.50;;;;;;;;;;5092316;28;20468;-75
2022/09/12 10:04:30;;;;;;;1.60;1.30;;;;;;;;;;5091634;28;20452;-74
2022/09/12 10:06:58;;;;;;;1.70;1.60;;;;;;;;;;5091844;28;20436;-74
2022/09/12 10:09:27;;;;;;;2.30;1.70;;;;;;;;;;5091793;28;20452;-74
2022/09/12 10:11:56;;;;;;;2.63;1.73;;;;;;;;;;5092154;28;20520;-74
2022/09/12 10:14:35;;;;;;;2.00;1.80;;;;;;;;;;5091012;28;20441;-75
2022/09/12 10:17:03;;;;;;;1.40;1.20;;;;;;;;;;5092260;28;20428;-74
2022/09/12 10:19:38;;;;;;;1.90;1.70;;;;;;;;;;5091691;28;20476;-74
2022/09/12 10:22:06;;;;;;;2.03;1.27;;;;;;;;;;5091734;28;20928;-74
2022/09/12 10:24:34;;;;;;;1.47;1.37;;;;;;;;;;5091550;28;20436;-74
2022/09/12 10:27:09;;;;;;;2.67;1.63;;;;;;;;;;5092033;28;20473;-74
2022/09/12 10:29:42;;;;;;;1.30;1.20;;;;;;;;;;5080021;28;20487;-74
2022/09/12 10:32:11;;;;;;;1.73;1.63;;;;;;;;;;5093230;28;20962;-75
2022/09/12 10:34:39;;;;;;;1.40;1.30;;;;;;;;;;5094039;28;20456;-75
2022/09/12 10:37:07;;;;;;;2.13;1.40;;;;;;;;;;5093741;28;20494;-73
2022/09/12 10:39:35;;;;;;;1.80;1.70;;;;;;;;;;5093554;28;20480;-73
2022/09/12 10:42:04;;;;;;;3.80;1.73;;;;;;;;;;5108773;28;20447;-74
2022/09/12 10:44:33;;;;;;;2.53;1.73;;;;;;;;;;5109130;28;20433;-74
2022/09/12 10:47:01;;;;;;;1.40;1.30;;;;;;;;;;5108222;28;20445;-73
2022/09/12 10:49:30;;;;;;;1.43;1.30;;;;;;;;;;5108564;28;20524;-74
2022/09/12 10:51:59;;;;;;;2.43;1.60;;;;;;;;;;5108987;28;20432;-74
2022/09/12 10:54:27;;;;;;;1.40;1.30;;;;;;;;;;5107501;28;20441;-76
2022/09/12 10:57:12;;;;;;;1.93;1.13;;;;;;;;;;5108005;28;20433;-76
2022/09/12 10:59:53;;;;;;;1.33;1.10;;;;;;;;;;5109628;28;20552;-76
2022/09/12 11:02:27;;;;;;;0.93;0.90;;;;;;;;;;5112194;28;20432;-73
2022/09/12 11:04:58;;;;;;;1.20;1.10;;;;;;;;;;5111565;28;20441;-74
2022/09/12 11:07:36;;;;;;;2.50;1.57;;;;;;;;;;5099458;28;20778;-74
2022/09/12 11:10:06;;;;;;;1.53;1.30;;;;;;;;;;5081260;28;20448;-75
2022/09/12 11:12:37;;;;;;;1.43;1.00;;;;;;;;;;5091166;28;20434;-74
2022/09/12 11:15:14;;;;;;;1.87;1.77;;;;;;;;;;5091661;28;20441;-74
2022/09/12 11:17:45;;;;;;;1.10;1.00;;;;;;;;;;5091633;28;20518;-74
2022/09/12 11:20:34;;;;;;;1.97;1.13;;;;;;;;;;5091427;28;20854;-72
2022/09/12 11:23:19;;;;;;;1.30;1.20;;;;;;;;;;5087328;28;20443;-74
2022/09/12 11:25:50;;;;;;;1.13;1.03;;;;;;;;;;5090953;28;20437;-73
2022/09/12 11:28:23;;;;;;;1.87;1.40;;;;;;;;;;5090605;28;20444;-74
2022/09/12 11:30:58;;;;;;;1.10;0.87;;;;;;;;;;5091309;28;20432;-74
2022/09/12 11:33:33;;;;;;;1.30;1.20;;;;;;;;;;5090610;28;20432;-74
2022/09/12 11:36:02;;;;;;;1.33;1.17;;;;;;;;;;5078575;28;20447;-74
2022/09/12 11:38:36;;;;;;;1.10;1.00;;;;;;;;;;5091392;28;20819;-75
2022/09/12 11:41:05;;;;;;;1.07;0.97;;;;;;;;;;5094978;28;20919;-75
2022/09/12 11:43:36;;;;;;;1.70;1.07;;;;;;;;;;5094355;28;20799;-75
2022/09/12 11:46:10;;;;;;;1.10;1.00;;;;;;;;;;5095021;28;20462;-75
2022/09/12 11:48:40;;;;;;;1.17;1.07;;;;;;;;;;5095098;28;20773;-75
2022/09/12 11:51:16;;;;;;;1.77;1.10;;;;;;;;;;5094944;28;20441;-75
2022/09/12 11:53:44;;;;;;;1.37;1.27;;;;;;;;;;5081037;28;20428;-74
2022/09/12 11:56:14;;;;;;;1.10;1.00;;;;;;;;;;5094866;28;20441;-73
2022/09/12 11:58:42;;;;;;;1.20;1.10;;;;;;;;;;5094411;28;20989;-75
2022/09/12 12:01:15;;;;;;;1.00;0.90;;;;;;;;;;5094722;28;20437;-75
2022/09/12 12:03:42;;;;;;;1.00;0.80;;;;;;;;;;5094271;28;20433;-74
2022/09/12 12:06:12;;;;;;;1.20;1.10;;;;;;;;;;5094934;28;20440;-74
2022/09/12 12:08:40;;;;;;;1.30;1.20;;;;;;;;;;5094989;28;20437;-74
2022/09/12 12:11:08;;;;;;;0.90;0.70;;;;;;;;;;5094449;28;20507;-75
2022/09/12 12:13:37;;;;;;;2.37;1.67;;;;;;;;;;5093511;28;20892;-75
2022/09/12 12:16:06;;;;;;;3.47;1.00;;;;;;;;;;5094335;28;20445;-74
2022/09/12 12:18:37;;;;;;;1.13;1.03;;;;;;;;;;5093460;28;20472;-76
2022/09/12 12:21:21;;;;;;;1.30;1.17;;;;;;;;;;5094542;28;20441;-73
2022/09/12 12:24:03;;;;;;;1.40;1.30;;;;;;;;;;5094064;28;20441;-77
2022/09/12 12:26:44;;;;;;;0.93;0.83;;;;;;;;;;5093832;28;20530;-74
2022/09/12 12:29:12;;;;;;;1.30;1.20;;;;;;;;;;5094470;28;20515;-74
2022/09/12 12:31:54;;;;;;;0.93;0.90;;;;;;;;;;5093928;28;20444;-74
2022/09/12 12:34:28;;;;;;;1.60;0.80;;;;;;;;;;5079398;28;20474;-77
2022/09/12 12:36:56;;;;;;;1.10;1.00;;;;;;;;;;5094199;28;20437;-75
2022/09/12 12:39:45;;;;;;;1.20;1.10;;;;;;;;;;5093303;28;20480;-74
2022/09/12 12:42:27;;;;;;;1.73;1.30;;;;;;;;;;5093660;28;20425;-74
2022/09/12 12:44:54;;;;;;;1.37;1.10;;;;;;;;;;5093022;28;20536;-75
2022/09/12 12:47:23;;;;;;;1.70;1.30;;;;;;;;;;5093168;28;20481;-75
2022/09/12 12:49:53;;;;;;;2.40;1.40;;;;;;;;;;5092839;28;20444;-77
2022/09/12 12:52:20;;;;;;;0.90;0.80;;;;;;;;;;5093194;28;20787;-74
2022/09/12 12:54:52;;;;;;;1.10;1.00;;;;;;;;;;5093144;28;20440;-74
2022/09/12 12:57:23;;;;;;;1.47;1.37;;;;;;;;;;5093474;28;20453;-75
2022/09/12 12:59:52;;;;;;;1.37;1.27;;;;;;;;;;5093860;28;20464;-75
2022/09/12 13:02:21;;;;;;;1.20;1.10;;;;;;;;;;5093444;28;20979;-74
2022/09/12 13:04:49;;;;;;;1.10;1.00;;;;;;;;;;5094368;28;20444;-75
2022/09/12 13:07:22;;;;;;;1.27;1.17;;;;;;;;;;5102888;28;20460;-74
2022/09/12 13:09:51;;;;;;;1.93;1.23;;;;;;;;;;5104518;28;20439;-75
2022/09/12 13:12:20;;;;;;;1.40;1.20;;;;;;;;;;5109251;28;20433;-75
2022/09/12 13:14:51;;;;;;;1.20;1.10;;;;;;;;;;5093937;28;20433;-74
2022/09/12 13:17:38;;;;;;;1.00;0.90;;;;;;;;;;5092765;28;20464;-76
2022/09/12 13:20:07;;;;;;;1.50;1.03;;;;;;;;;;5093586;28;20469;-75
2022/09/12 13:22:43;;;;;;;2.97;1.00;;;;;;;;;;5092365;28;20445;-75
2022/09/12 13:25:20;;;;;;;1.00;0.90;;;;;;;;;;5093235;28;20582;-75
2022/09/12 13:27:57;;;;;;;1.20;1.00;;;;;;;;;;5093042;28;20471;-75
2022/09/12 13:30:25;;;;;;;0.97;0.87;;;;;;;;;;5092642;28;20444;-75
2022/09/12 13:32:53;;;;;;;1.00;0.90;;;;;;;;;;5092287;28;20440;-75
2022/09/12 13:35:23;;;;;;;1.10;0.80;;;;;;;;;;5091774;28;20822;-75
2022/09/12 13:37:54;;;;;;;1.40;0.93;;;;;;;;;;5092940;28;20437;-77
2022/09/12 13:40:30;;;;;;;1.10;1.00;;;;;;;;;;5091688;28;20994;-75
2022/09/12 13:43:10;;;;;;;1.00;0.90;;;;;;;;;;5092397;28;20774;-75
2022/09/12 13:45:38;;;;;;;3.73;1.10;;;;;;;;;;5092601;28;20444;-76
2022/09/12 13:48:08;;;;;;;1.20;0.87;;;;;;;;;;5092692;28;20445;-75
2022/09/12 13:50:39;;;;;;;1.10;1.00;;;;;;;;;;5078988;28;20444;-75
2022/09/12 13:53:12;;;;;;;1.13;0.80;;;;;;;;;;5092486;28;20439;-76
2022/09/12 13:55:41;;;;;;;0.90;0.90;;;;;;;;;;5092736;28;20464;-76
2022/09/12 13:58:16;;;;;;;0.80;0.73;;;;;;;;;;5092396;28;20471;-75
2022/09/12 14:00:44;;;;;;;0.90;0.73;;;;;;;;;;5092740;28;20468;-75
2022/09/12 14:06:17;;;;;;;1.73;1.20;;;;;;;;;;5016295;28;20439;-75
2022/09/12 14:08:46;;;;;;;1.10;1.00;;;;;;;;;;5092525;28;20439;-75
2022/09/12 14:11:19;;;;;;;3.50;1.20;;;;;;;;;;5091313;28;20908;-76
2022/09/12 14:13:47;;;;;;;1.10;1.00;;;;;;;;;;5092048;28;20467;-76
2022/09/12 14:16:15;;;;;;;1.30;1.20;;;;;;;;;;5091738;28;20439;-76
2022/09/12 14:18:44;;;;;;;1.40;1.27;;;;;;;;;;5092024;28;20494;-74
2022/09/12 14:21:12;;;;;;;1.37;1.07;;;;;;;;;;5092223;28;20847;-74
2022/09/12 14:23:41;;;;;;;2.10;1.10;;;;;;;;;;5091850;28;20535;-75
2022/09/12 14:26:12;;;;;;;2.07;1.10;;;;;;;;;;5091790;28;20468;-75
2022/09/12 14:28:40;;;;;;;1.10;1.00;;;;;;;;;;5091972;28;20433;-74
2022/09/12 14:31:08;;;;;;;3.63;1.10;;;;;;;;;;5091728;28;20448;-74
2022/09/12 14:33:47;;;;;;;1.43;1.00;;;;;;;;;;5090547;28;20834;-73
2022/09/12 14:36:19;;;;;;;1.23;1.13;;;;;;;;;;5090760;28;20455;-73
2022/09/12 14:38:50;;;;;;;1.53;1.43;;;;;;;;;;5091972;28;20424;-74
2022/09/12 14:41:23;;;;;;;1.37;1.10;;;;;;;;;;5090910;28;20429;-74
2022/09/12 14:43:52;;;;;;;2.83;1.07;;;;;;;;;;5091243;28;20798;-74
2022/09/12 14:46:23;;;;;;;0.77;0.73;;;;;;;;;;5090808;28;20440;-74
2022/09/12 14:48:52;;;;;;;1.07;0.93;;;;;;;;;;5091396;28;20438;-73
2022/09/12 14:51:22;;;;;;;0.87;0.77;;;;;;;;;;5090631;28;20981;-74
2022/09/12 14:53:49;;;;;;;1.10;1.00;;;;;;;;;;5077710;28;20440;-75
2022/09/12 14:56:16;;;;;;;1.83;0.87;;;;;;;;;;5090617;28;20447;-74
2022/09/12 14:58:45;;;;;;;1.02;0.88;;;;;;;;;;5091525;28;20200;-74
2022/09/12 15:01:22;;;;;;;1.08;0.98;;;;;;;;;;5090738;28;20218;-73
2022/09/12 15:03:51;;;;;;;1.02;0.75;;;;;;;;;;5091180;28;20194;-75